Terminal Aerodrome Forecast
Issued by NWS

Home | Current Version | Previous Version | Text Only | Print | Product List | Glossary On
Versions: 1 2 3 4 5 6 7 8 9 10 11 12 13 14 15 16 17 18 19 20 21 22 23 24 25 26 27 28 29 30 31 32 33
000
FTUS45 KTWC 312000 AAA
TAFOLS
TAF AMD
KOLS 312000Z 3120/0118 VRB04KT P6SM SCT080 SCT120
      TEMPO 3120/3121 VRB12G20KT P6SM TSRA BKN070CB OVC100
     FM312100 13009KT P6SM VCTS BKN060CB BKN090
     FM010200 07005KT P6SM SCT060 OVC090
     FM010700 VRB04KT P6SM SCT080 BKN150=

USA.gov is the U.S. government's official web portal to all federal, state and local government web resources and services.